Pittsburgh, Pennsylvania
Traffic Map
Current Weather Conditions
Pittsburgh, Pennsylvania
Broken Clouds
Broken Clouds
23°
Feels Like: 23°
Wind Chill: 23° Ceiling: 8000
Heat Index: 23° Visibility: 10mi
Dew Point: 19° Wind: 9mph
Humidity: 81% Direction: 210° (SSW)
Pressure: 29.97in Gusts: 0mph
Raw Report DataKAGC 020653Z AUTO 21008KT 10SM BKN080 23/19 A2997 RMK AO2 SLP143 T02280194 TSNO
Traffic Incident Summary
Active as of:
Severity:
Category:
InformationThere was an issue retrieving the traffic information for this location. Please try a different location or try again shortly.
Advertisements
Track Severe Weather on mobile